7W4

Lake Anna Airport

Bumpass, Virginia, USA
METAR K7W4 132215Z AUTO 12003KT 10SM SCT020 OVC050 09/07 A3010 RMK AO1 T00860071
Observed Flight Rules
Nov-13 @ 22:15 UTC (16 minutes ago) Visual Flight Rules
Wind Visibility Clouds
120° at 3 knots 10 miles
  • Scattered at 2,000' AGL
  • Overcast at 5,000' AGL
Temperatures Readings
Current 9°C / 48°F
Dewpoint 7°C / 45°F
Humidity 87%
Altimeter 30.1" Hg
Pressure 1019 hPa
Elevation 106
METAR K7W4 132215Z AUTO 12003KT 10SM SCT020 OVC050 09/07 A3010 RMK AO1 T00860071
Observed Flight Rules
Nov-13 @ 22:15 UTC
(16 minutes ago)
VFR
Wind Visibility
120° at 3 knots 10 miles
Clouds
  • Scattered at 2,000' AGL
  • Overcast at 5,000' AGL
Temperature Dewpoint
9°C / 48°F 7°C / 45°F
Humidity Altimeter Pressure
87% 30.1" Hg 1019 hPa